sensor_id;sensor_type;location;lat;lon;timestamp;pressure;altitude;pressure_sealevel;temperature;humidity
76815;BME280;65768;49.906;19.384;2023-07-29T00:01:15;97648.77;;;21.07;67.17
76815;BME280;65768;49.906;19.384;2023-07-29T00:03:46;97643.85;;;20.99;67.49
76815;BME280;65768;49.906;19.384;2023-07-29T00:06:16;97644.40;;;20.95;67.67
76815;BME280;65768;49.906;19.384;2023-07-29T00:08:45;97649.48;;;20.96;67.75
76815;BME280;65768;49.906;19.384;2023-07-29T00:11:13;97647.24;;;20.91;68.22
76815;BME280;65768;49.906;19.384;2023-07-29T00:13:42;97645.30;;;20.95;68.20
76815;BME280;65768;49.906;19.384;2023-07-29T00:16:11;97643.80;;;21.00;67.95
76815;BME280;65768;49.906;19.384;2023-07-29T00:18:40;97645.92;;;21.00;67.85
76815;BME280;65768;49.906;19.384;2023-07-29T00:21:09;97645.31;;;20.98;68.25
76815;BME280;65768;49.906;19.384;2023-07-29T00:23:39;97643.85;;;20.95;67.99
76815;BME280;65768;49.906;19.384;2023-07-29T00:26:08;97641.69;;;20.89;68.52
76815;BME280;65768;49.906;19.384;2023-07-29T00:28:38;97645.91;;;20.96;68.19
76815;BME280;65768;49.906;19.384;2023-07-29T00:31:07;97644.57;;;20.99;68.13
76815;BME280;65768;49.906;19.384;2023-07-29T00:33:36;97640.44;;;21.03;68.40
76815;BME280;65768;49.906;19.384;2023-07-29T00:36:05;97638.90;;;21.13;68.04
76815;BME280;65768;49.906;19.384;2023-07-29T00:38:33;97636.35;;;21.18;68.20
76815;BME280;65768;49.906;19.384;2023-07-29T00:41:03;97635.41;;;21.15;68.00
76815;BME280;65768;49.906;19.384;2023-07-29T00:43:32;97636.22;;;21.06;68.37
76815;BME280;65768;49.906;19.384;2023-07-29T00:46:04;97637.73;;;21.00;68.69
76815;BME280;65768;49.906;19.384;2023-07-29T00:48:32;97638.29;;;20.97;68.74
76815;BME280;65768;49.906;19.384;2023-07-29T00:51:01;97638.58;;;20.98;68.74
76815;BME280;65768;49.906;19.384;2023-07-29T00:53:30;97638.33;;;20.99;68.72
76815;BME280;65768;49.906;19.384;2023-07-29T00:55:59;97640.83;;;21.03;68.74
76815;BME280;65768;49.906;19.384;2023-07-29T00:58:28;97640.04;;;21.04;68.96
76815;BME280;65768;49.906;19.384;2023-07-29T01:00:57;97645.66;;;21.09;68.66
76815;BME280;65768;49.906;19.384;2023-07-29T01:03:25;97653.82;;;20.58;69.30
76815;BME280;65768;49.906;19.384;2023-07-29T01:09:45;97664.64;;;19.75;71.71
76815;BME280;65768;49.906;19.384;2023-07-29T01:17:53;97666.12;;;19.78;72.17
76815;BME280;65768;49.906;19.384;2023-07-29T01:20:24;97666.63;;;19.90;71.90
76815;BME280;65768;49.906;19.384;2023-07-29T01:22:54;97669.83;;;19.94;72.57
76815;BME280;65768;49.906;19.384;2023-07-29T01:25:22;97671.91;;;19.94;72.96
76815;BME280;65768;49.906;19.384;2023-07-29T01:27:52;97674.84;;;20.04;72.29
76815;BME280;65768;49.906;19.384;2023-07-29T01:30:24;97670.89;;;20.08;72.42
76815;BME280;65768;49.906;19.384;2023-07-29T01:33:04;97669.92;;;20.14;72.24
76815;BME280;65768;49.906;19.384;2023-07-29T01:35:52;97671.63;;;20.16;72.48
76815;BME280;65768;49.906;19.384;2023-07-29T01:38:33;97669.75;;;20.22;72.00
76815;BME280;65768;49.906;19.384;2023-07-29T01:41:04;97673.45;;;20.26;71.90
76815;BME280;65768;49.906;19.384;2023-07-29T01:43:36;97670.90;;;20.23;72.21
76815;BME280;65768;49.906;19.384;2023-07-29T01:46:13;97670.70;;;20.20;72.29
76815;BME280;65768;49.906;19.384;2023-07-29T01:48:43;97672.70;;;20.19;72.40
76815;BME280;65768;49.906;19.384;2023-07-29T01:51:12;97671.49;;;20.18;72.65
76815;BME280;65768;49.906;19.384;2023-07-29T01:53:42;97673.92;;;20.20;72.75
76815;BME280;65768;49.906;19.384;2023-07-29T01:56:11;97671.28;;;20.23;72.67
76815;BME280;65768;49.906;19.384;2023-07-29T01:58:40;97672.30;;;20.27;72.59
76815;BME280;65768;49.906;19.384;2023-07-29T02:01:11;97667.14;;;20.32;72.39
76815;BME280;65768;49.906;19.384;2023-07-29T02:03:40;97668.69;;;20.32;72.08
76815;BME280;65768;49.906;19.384;2023-07-29T02:06:09;97665.02;;;20.35;72.59
76815;BME280;65768;49.906;19.384;2023-07-29T02:08:39;97659.40;;;20.38;72.38
76815;BME280;65768;49.906;19.384;2023-07-29T02:11:09;97660.83;;;20.45;72.22
76815;BME280;65768;49.906;19.384;2023-07-29T02:13:38;97660.97;;;20.54;71.79
76815;BME280;65768;49.906;19.384;2023-07-29T02:16:07;97659.61;;;20.60;71.96
76815;BME280;65768;49.906;19.384;2023-07-29T02:18:36;97659.96;;;20.68;71.44
76815;BME280;65768;49.906;19.384;2023-07-29T02:21:05;97656.43;;;20.78;70.93
76815;BME280;65768;49.906;19.384;2023-07-29T02:23:34;97653.49;;;20.90;70.70
76815;BME280;65768;49.906;19.384;2023-07-29T02:26:02;97655.50;;;21.03;70.28
76815;BME280;65768;49.906;19.384;2023-07-29T02:28:31;97658.41;;;21.12;69.98
76815;BME280;65768;49.906;19.384;2023-07-29T02:31:14;97664.16;;;21.14;69.95
76815;BME280;65768;49.906;19.384;2023-07-29T02:33:44;97670.01;;;21.14;69.94
76815;BME280;65768;49.906;19.384;2023-07-29T02:36:14;97666.84;;;21.10;69.94
76815;BME280;65768;49.906;19.384;2023-07-29T02:38:42;97672.17;;;21.14;70.09
76815;BME280;65768;49.906;19.384;2023-07-29T02:41:12;97670.52;;;21.15;70.10
76815;BME280;65768;49.906;19.384;2023-07-29T02:43:42;97668.27;;;21.14;70.29
76815;BME280;65768;49.906;19.384;2023-07-29T02:46:11;97668.10;;;21.14;70.22
76815;BME280;65768;49.906;19.384;2023-07-29T02:48:42;97671.62;;;21.14;70.21
76815;BME280;65768;49.906;19.384;2023-07-29T02:51:10;97674.14;;;21.10;70.26
76815;BME280;65768;49.906;19.384;2023-07-29T02:53:40;97672.44;;;21.15;70.24
76815;BME280;65768;49.906;19.384;2023-07-29T02:56:08;97679.21;;;21.22;69.94
76815;BME280;65768;49.906;19.384;2023-07-29T02:58:37;97680.94;;;21.23;69.93
76815;BME280;65768;49.906;19.384;2023-07-29T03:01:07;97682.77;;;21.18;70.18
76815;BME280;65768;49.906;19.384;2023-07-29T03:03:37;97681.09;;;21.16;69.88
76815;BME280;65768;49.906;19.384;2023-07-29T03:06:08;97682.08;;;21.11;70.49
76815;BME280;65768;49.906;19.384;2023-07-29T03:08:37;97684.84;;;21.09;70.20
76815;BME280;65768;49.906;19.384;2023-07-29T03:11:08;97678.57;;;21.03;70.58
76815;BME280;65768;49.906;19.384;2023-07-29T03:13:38;97676.86;;;21.01;70.57
76815;BME280;65768;49.906;19.384;2023-07-29T03:16:15;97679.13;;;20.99;70.24
76815;BME280;65768;49.906;19.384;2023-07-29T03:18:48;97676.38;;;20.93;70.43
76815;BME280;65768;49.906;19.384;2023-07-29T03:21:17;97671.42;;;20.90;70.54
76815;BME280;65768;49.906;19.384;2023-07-29T03:23:46;97672.06;;;20.84;70.73
76815;BME280;65768;49.906;19.384;2023-07-29T03:26:16;97676.65;;;20.85;70.53
76815;BME280;65768;49.906;19.384;2023-07-29T03:28:44;97678.40;;;20.81;70.65
76815;BME280;65768;49.906;19.384;2023-07-29T03:31:14;97676.61;;;20.78;70.68
76815;BME280;65768;49.906;19.384;2023-07-29T03:33:43;97676.72;;;20.79;70.86
76815;BME280;65768;49.906;19.384;2023-07-29T03:36:12;97679.02;;;20.79;70.86
76815;BME280;65768;49.906;19.384;2023-07-29T03:38:41;97682.49;;;20.70;71.76
76815;BME280;65768;49.906;19.384;2023-07-29T03:41:11;97682.94;;;20.65;72.11
76815;BME280;65768;49.906;19.384;2023-07-29T03:43:41;97683.31;;;20.60;72.16
76815;BME280;65768;49.906;19.384;2023-07-29T03:46:12;97691.42;;;20.50;72.08
76815;BME280;65768;49.906;19.384;2023-07-29T03:48:42;97694.06;;;20.39;72.59
76815;BME280;65768;49.906;19.384;2023-07-29T03:51:12;97689.96;;;20.40;72.58
76815;BME280;65768;49.906;19.384;2023-07-29T03:53:41;97694.20;;;20.40;72.68
76815;BME280;65768;49.906;19.384;2023-07-29T03:56:12;97695.60;;;20.36;72.97
76815;BME280;65768;49.906;19.384;2023-07-29T03:58:43;97699.50;;;20.33;72.56
76815;BME280;65768;49.906;19.384;2023-07-29T04:01:12;97701.64;;;20.32;72.66
76815;BME280;65768;49.906;19.384;2023-07-29T04:03:41;97703.05;;;20.36;72.89
76815;BME280;65768;49.906;19.384;2023-07-29T04:06:10;97704.97;;;20.44;72.56
76815;BME280;65768;49.906;19.384;2023-07-29T04:08:39;97704.52;;;20.50;72.31
76815;BME280;65768;49.906;19.384;2023-07-29T04:11:10;97704.47;;;20.55;72.19
76815;BME280;65768;49.906;19.384;2023-07-29T04:13:39;97703.27;;;20.62;71.96
76815;BME280;65768;49.906;19.384;2023-07-29T04:16:08;97707.25;;;20.68;71.93
76815;BME280;65768;49.906;19.384;2023-07-29T04:18:37;97710.67;;;20.74;71.64
76815;BME280;65768;49.906;19.384;2023-07-29T04:21:06;97711.31;;;20.82;71.65
76815;BME280;65768;49.906;19.384;2023-07-29T04:23:35;97710.72;;;20.91;71.90
76815;BME280;65768;49.906;19.384;2023-07-29T04:26:04;97707.48;;;20.92;72.16
76815;BME280;65768;49.906;19.384;2023-07-29T04:28:34;97709.36;;;20.96;72.22
76815;BME280;65768;49.906;19.384;2023-07-29T04:31:03;97702.65;;;21.03;72.10
76815;BME280;65768;49.906;19.384;2023-07-29T04:33:33;97709.74;;;21.17;71.72
76815;BME280;65768;49.906;19.384;2023-07-29T04:36:03;97710.91;;;21.26;71.97
76815;BME280;65768;49.906;19.384;2023-07-29T04:38:37;97704.48;;;21.27;72.78
76815;BME280;65768;49.906;19.384;2023-07-29T04:41:06;97714.61;;;21.37;72.83
76815;BME280;65768;49.906;19.384;2023-07-29T04:43:36;97709.30;;;21.41;72.55
76815;BME280;65768;49.906;19.384;2023-07-29T04:46:07;97704.42;;;21.49;72.25
76815;BME280;65768;49.906;19.384;2023-07-29T04:48:38;97704.21;;;21.57;71.99
76815;BME280;65768;49.906;19.384;2023-07-29T04:51:06;97703.33;;;21.63;71.62
76815;BME280;65768;49.906;19.384;2023-07-29T04:53:35;97713.75;;;21.67;71.47
76815;BME280;65768;49.906;19.384;2023-07-29T04:56:05;97712.52;;;21.74;71.78
76815;BME280;65768;49.906;19.384;2023-07-29T04:58:34;97712.84;;;21.85;71.27
76815;BME280;65768;49.906;19.384;2023-07-29T05:01:04;97714.65;;;21.97;70.96
76815;BME280;65768;49.906;19.384;2023-07-29T05:03:34;97714.77;;;22.08;70.78
76815;BME280;65768;49.906;19.384;2023-07-29T05:06:03;97716.55;;;22.22;70.23
76815;BME280;65768;49.906;19.384;2023-07-29T05:08:31;97715.94;;;22.39;69.51
76815;BME280;65768;49.906;19.384;2023-07-29T05:11:00;97719.74;;;22.57;68.59
76815;BME280;65768;49.906;19.384;2023-07-29T05:13:29;97720.85;;;22.69;68.28
76815;BME280;65768;49.906;19.384;2023-07-29T05:15:58;97722.19;;;22.77;68.43
76815;BME280;65768;49.906;19.384;2023-07-29T05:18:28;97723.97;;;22.89;67.75
76815;BME280;65768;49.906;19.384;2023-07-29T05:20:56;97720.48;;;22.95;67.60
76815;BME280;65768;49.906;19.384;2023-07-29T05:23:25;97726.78;;;23.03;67.45
76815;BME280;65768;49.906;19.384;2023-07-29T05:25:55;97727.00;;;23.11;67.48
76815;BME280;65768;49.906;19.384;2023-07-29T05:28:23;97731.55;;;23.19;66.57
76815;BME280;65768;49.906;19.384;2023-07-29T05:30:52;97726.72;;;23.34;66.37
76815;BME280;65768;49.906;19.384;2023-07-29T05:33:21;97734.64;;;23.51;66.06
76815;BME280;65768;49.906;19.384;2023-07-29T05:35:50;97730.39;;;23.65;65.37
76815;BME280;65768;49.906;19.384;2023-07-29T05:38:19;97730.89;;;23.75;64.49
76815;BME280;65768;49.906;19.384;2023-07-29T05:40:48;97726.08;;;23.98;63.54
76815;BME280;65768;49.906;19.384;2023-07-29T05:43:18;97727.89;;;24.17;63.14
76815;BME280;65768;49.906;19.384;2023-07-29T05:45:47;97735.20;;;24.38;62.73
76815;BME280;65768;49.906;19.384;2023-07-29T05:48:16;97733.30;;;24.57;61.99
76815;BME280;65768;49.906;19.384;2023-07-29T05:50:44;97728.32;;;24.76;60.77
76815;BME280;65768;49.906;19.384;2023-07-29T05:53:14;97728.04;;;24.89;59.78
76815;BME280;65768;49.906;19.384;2023-07-29T05:55:43;97726.30;;;25.15;59.92
76815;BME280;65768;49.906;19.384;2023-07-29T05:58:12;97726.80;;;25.47;59.06
76815;BME280;65768;49.906;19.384;2023-07-29T06:00:40;97726.43;;;25.55;56.79
76815;BME280;65768;49.906;19.384;2023-07-29T06:03:09;97726.63;;;25.37;56.41
76815;BME280;65768;49.906;19.384;2023-07-29T06:05:39;97729.59;;;25.41;56.87
76815;BME280;65768;49.906;19.384;2023-07-29T06:08:07;97726.50;;;25.67;56.18
76815;BME280;65768;49.906;19.384;2023-07-29T06:10:38;97728.27;;;25.71;55.60
76815;BME280;65768;49.906;19.384;2023-07-29T06:13:07;97726.86;;;25.83;55.00
76815;BME280;65768;49.906;19.384;2023-07-29T06:15:38;97728.15;;;25.80;54.73
76815;BME280;65768;49.906;19.384;2023-07-29T06:18:07;97730.91;;;26.05;54.93
76815;BME280;65768;49.906;19.384;2023-07-29T06:20:36;97733.98;;;26.32;54.38
76815;BME280;65768;49.906;19.384;2023-07-29T06:23:04;97738.95;;;26.27;53.74
76815;BME280;65768;49.906;19.384;2023-07-29T06:25:33;97737.55;;;26.47;53.00
76815;BME280;65768;49.906;19.384;2023-07-29T06:28:02;97744.52;;;26.57;52.13
76815;BME280;65768;49.906;19.384;2023-07-29T06:30:31;97741.80;;;26.90;52.37
76815;BME280;65768;49.906;19.384;2023-07-29T06:33:01;97739.40;;;26.93;51.52
76815;BME280;65768;49.906;19.384;2023-07-29T06:35:32;97741.21;;;26.90;51.26
76815;BME280;65768;49.906;19.384;2023-07-29T06:38:02;97736.45;;;26.90;50.77
76815;BME280;65768;49.906;19.384;2023-07-29T06:40:30;97741.48;;;26.86;51.47
76815;BME280;65768;49.906;19.384;2023-07-29T06:42:58;97742.63;;;27.30;51.30
76815;BME280;65768;49.906;19.384;2023-07-29T06:45:27;97742.68;;;27.04;50.93
76815;BME280;65768;49.906;19.384;2023-07-29T06:47:57;97741.96;;;27.31;50.48
76815;BME280;65768;49.906;19.384;2023-07-29T06:50:26;97745.27;;;27.42;50.42
76815;BME280;65768;49.906;19.384;2023-07-29T06:52:55;97745.05;;;27.24;50.70
76815;BME280;65768;49.906;19.384;2023-07-29T06:55:24;97744.44;;;27.60;50.21
76815;BME280;65768;49.906;19.384;2023-07-29T06:57:53;97745.52;;;27.97;49.60
76815;BME280;65768;49.906;19.384;2023-07-29T07:00:22;97742.57;;;27.87;50.06
76815;BME280;65768;49.906;19.384;2023-07-29T07:02:51;97744.02;;;28.07;49.00
76815;BME280;65768;49.906;19.384;2023-07-29T07:05:19;97745.33;;;28.27;49.38
76815;BME280;65768;49.906;19.384;2023-07-29T07:07:48;97742.94;;;28.12;49.23
76815;BME280;65768;49.906;19.384;2023-07-29T07:10:19;97746.86;;;27.84;48.71
76815;BME280;65768;49.906;19.384;2023-07-29T07:12:47;97744.50;;;28.31;48.67
76815;BME280;65768;49.906;19.384;2023-07-29T07:15:16;97748.38;;;27.86;50.39
76815;BME280;65768;49.906;19.384;2023-07-29T07:17:45;97742.28;;;27.86;48.39
76815;BME280;65768;49.906;19.384;2023-07-29T07:20:14;97741.22;;;27.90;48.80
76815;BME280;65768;49.906;19.384;2023-07-29T07:22:43;97739.85;;;27.66;48.68
76815;BME280;65768;49.906;19.384;2023-07-29T07:25:12;97741.38;;;27.63;49.70
76815;BME280;65768;49.906;19.384;2023-07-29T07:27:40;97743.58;;;27.28;49.74
76815;BME280;65768;49.906;19.384;2023-07-29T07:30:08;97742.28;;;27.36;48.97
76815;BME280;65768;49.906;19.384;2023-07-29T07:32:36;97744.31;;;27.24;49.23
76815;BME280;65768;49.906;19.384;2023-07-29T07:35:05;97745.70;;;27.21;49.13
76815;BME280;65768;49.906;19.384;2023-07-29T07:37:34;97745.17;;;27.29;49.05
76815;BME280;65768;49.906;19.384;2023-07-29T07:40:02;97742.44;;;27.53;49.97
76815;BME280;65768;49.906;19.384;2023-07-29T07:42:31;97744.74;;;28.16;49.91
76815;BME280;65768;49.906;19.384;2023-07-29T07:45:00;97738.08;;;28.23;49.47
76815;BME280;65768;49.906;19.384;2023-07-29T07:47:28;97741.25;;;28.26;48.26
76815;BME280;65768;49.906;19.384;2023-07-29T07:49:56;97739.66;;;28.15;47.51
76815;BME280;65768;49.906;19.384;2023-07-29T07:52:24;97738.48;;;28.46;46.41
76815;BME280;65768;49.906;19.384;2023-07-29T07:54:54;97734.36;;;28.59;46.81
76815;BME280;65768;49.906;19.384;2023-07-29T07:57:23;97739.05;;;28.34;46.37
76815;BME280;65768;49.906;19.384;2023-07-29T07:59:51;97736.92;;;28.22;45.56
76815;BME280;65768;49.906;19.384;2023-07-29T08:02:20;97734.83;;;28.56;44.53
76815;BME280;65768;49.906;19.384;2023-07-29T08:04:49;97736.03;;;28.89;45.41
76815;BME280;65768;49.906;19.384;2023-07-29T08:07:18;97733.25;;;28.77;46.78
76815;BME280;65768;49.906;19.384;2023-07-29T08:09:47;97731.39;;;29.24;45.92
76815;BME280;65768;49.906;19.384;2023-07-29T08:12:16;97729.22;;;29.63;44.77
76815;BME280;65768;49.906;19.384;2023-07-29T08:14:45;97727.36;;;29.76;44.07
76815;BME280;65768;49.906;19.384;2023-07-29T08:17:13;97729.48;;;29.10;44.25
76815;BME280;65768;49.906;19.384;2023-07-29T08:19:44;97731.20;;;28.98;44.73
76815;BME280;65768;49.906;19.384;2023-07-29T08:22:12;97731.65;;;28.54;45.71
76815;BME280;65768;49.906;19.384;2023-07-29T08:24:41;97731.66;;;28.23;46.69
76815;BME280;65768;49.906;19.384;2023-07-29T08:27:09;97731.63;;;28.68;46.43
76815;BME280;65768;49.906;19.384;2023-07-29T08:29:38;97733.05;;;28.44;46.23
76815;BME280;65768;49.906;19.384;2023-07-29T08:32:07;97736.59;;;28.33;46.00
76815;BME280;65768;49.906;19.384;2023-07-29T08:34:37;97731.89;;;28.27;46.53
76815;BME280;65768;49.906;19.384;2023-07-29T08:37:06;97733.41;;;28.62;45.88
76815;BME280;65768;49.906;19.384;2023-07-29T08:39:35;97730.70;;;28.53;46.66
76815;BME280;65768;49.906;19.384;2023-07-29T08:42:07;97731.24;;;29.08;46.96
76815;BME280;65768;49.906;19.384;2023-07-29T08:44:42;97727.63;;;28.91;45.14
76815;BME280;65768;49.906;19.384;2023-07-29T08:47:12;97727.23;;;29.03;46.38
76815;BME280;65768;49.906;19.384;2023-07-29T08:49:47;97718.58;;;29.12;45.26
76815;BME280;65768;49.906;19.384;2023-07-29T08:52:16;97719.85;;;28.30;45.70
76815;BME280;65768;49.906;19.384;2023-07-29T08:54:46;97715.56;;;28.70;46.27
76815;BME280;65768;49.906;19.384;2023-07-29T08:57:15;97722.21;;;28.69;46.27
76815;BME280;65768;49.906;19.384;2023-07-29T08:59:44;97722.86;;;28.37;46.48
76815;BME280;65768;49.906;19.384;2023-07-29T09:02:13;97723.35;;;28.69;47.14
76815;BME280;65768;49.906;19.384;2023-07-29T09:04:42;97721.63;;;28.90;46.07
76815;BME280;65768;49.906;19.384;2023-07-29T09:07:10;97716.60;;;28.77;47.14
76815;BME280;65768;49.906;19.384;2023-07-29T09:09:40;97716.02;;;29.08;46.22
76815;BME280;65768;49.906;19.384;2023-07-29T09:12:08;97715.90;;;28.70;46.88
76815;BME280;65768;49.906;19.384;2023-07-29T09:14:36;97718.12;;;27.86;48.58
76815;BME280;65768;49.906;19.384;2023-07-29T09:17:07;97717.78;;;28.03;48.60
76815;BME280;65768;49.906;19.384;2023-07-29T09:19:37;97719.39;;;27.34;49.52
76815;BME280;65768;49.906;19.384;2023-07-29T09:22:19;97723.59;;;27.04;50.23
76815;BME280;65768;49.906;19.384;2023-07-29T09:24:48;97717.48;;;27.45;50.75
76815;BME280;65768;49.906;19.384;2023-07-29T09:27:27;97714.84;;;27.16;49.92
76815;BME280;65768;49.906;19.384;2023-07-29T09:29:56;97717.88;;;26.74;51.93
76815;BME280;65768;49.906;19.384;2023-07-29T09:32:25;97712.21;;;26.98;51.73
76815;BME280;65768;49.906;19.384;2023-07-29T09:34:55;97713.48;;;27.02;50.86
76815;BME280;65768;49.906;19.384;2023-07-29T09:37:24;97704.68;;;27.08;51.21
76815;BME280;65768;49.906;19.384;2023-07-29T09:39:53;97707.63;;;26.99;51.49
76815;BME280;65768;49.906;19.384;2023-07-29T09:42:22;97703.22;;;26.87;51.76
76815;BME280;65768;49.906;19.384;2023-07-29T09:44:52;97697.94;;;26.92;52.19
76815;BME280;65768;49.906;19.384;2023-07-29T09:47:23;97694.12;;;27.34;51.50
76815;BME280;65768;49.906;19.384;2023-07-29T09:49:53;97698.38;;;27.93;50.73
76815;BME280;65768;49.906;19.384;2023-07-29T09:52:23;97700.43;;;28.23;51.23
76815;BME280;65768;49.906;19.384;2023-07-29T09:54:52;97701.34;;;28.28;50.90
76815;BME280;65768;49.906;19.384;2023-07-29T09:57:21;97703.91;;;28.32;49.75
76815;BME280;65768;49.906;19.384;2023-07-29T09:59:55;97700.27;;;28.83;48.67
76815;BME280;65768;49.906;19.384;2023-07-29T10:02:25;97702.16;;;28.95;47.67
76815;BME280;65768;49.906;19.384;2023-07-29T10:04:57;97698.52;;;29.35;47.44
76815;BME280;65768;49.906;19.384;2023-07-29T10:07:26;97697.35;;;29.25;46.35
76815;BME280;65768;49.906;19.384;2023-07-29T10:09:56;97694.36;;;29.54;46.30
76815;BME280;65768;49.906;19.384;2023-07-29T10:12:25;97688.54;;;29.93;45.37
76815;BME280;65768;49.906;19.384;2023-07-29T10:14:59;97691.48;;;30.61;44.70
76815;BME280;65768;49.906;19.384;2023-07-29T10:17:28;97682.55;;;31.08;43.63
76815;BME280;65768;49.906;19.384;2023-07-29T10:20:00;97682.65;;;31.52;42.32
76815;BME280;65768;49.906;19.384;2023-07-29T10:22:40;97683.20;;;31.46;41.73
76815;BME280;65768;49.906;19.384;2023-07-29T10:25:25;97688.41;;;31.27;43.14
76815;BME280;65768;49.906;19.384;2023-07-29T10:28:12;97690.88;;;31.02;42.26
76815;BME280;65768;49.906;19.384;2023-07-29T10:30:41;97694.41;;;30.89;43.62
76815;BME280;65768;49.906;19.384;2023-07-29T10:33:10;97695.19;;;30.30;44.09
76815;BME280;65768;49.906;19.384;2023-07-29T10:35:40;97694.29;;;30.07;43.99
76815;BME280;65768;49.906;19.384;2023-07-29T10:38:10;97695.30;;;30.22;44.76
76815;BME280;65768;49.906;19.384;2023-07-29T10:40:56;97700.29;;;30.08;45.51
76815;BME280;65768;49.906;19.384;2023-07-29T10:43:36;97696.85;;;29.90;45.60
76815;BME280;65768;49.906;19.384;2023-07-29T10:46:20;97696.83;;;29.82;45.71
76815;BME280;65768;49.906;19.384;2023-07-29T10:49:07;97691.83;;;29.77;45.45
76815;BME280;65768;49.906;19.384;2023-07-29T10:51:37;97690.14;;;29.60;45.84
76815;BME280;65768;49.906;19.384;2023-07-29T10:54:12;97691.80;;;29.76;47.21
76815;BME280;65768;49.906;19.384;2023-07-29T10:56:46;97688.78;;;29.75;45.96
76815;BME280;65768;49.906;19.384;2023-07-29T10:59:32;97688.62;;;29.86;45.38
76815;BME280;65768;49.906;19.384;2023-07-29T11:02:12;97684.58;;;29.62;47.04
76815;BME280;65768;49.906;19.384;2023-07-29T11:04:47;97686.27;;;29.63;46.25
76815;BME280;65768;49.906;19.384;2023-07-29T11:07:19;97685.57;;;29.77;46.38
76815;BME280;65768;49.906;19.384;2023-07-29T11:09:53;97679.05;;;30.39;45.14
76815;BME280;65768;49.906;19.384;2023-07-29T11:12:39;97680.95;;;30.42;43.85
76815;BME280;65768;49.906;19.384;2023-07-29T11:15:15;97679.11;;;30.25;43.50
76815;BME280;65768;49.906;19.384;2023-07-29T11:17:52;97677.41;;;30.11;44.45
76815;BME280;65768;49.906;19.384;2023-07-29T11:20:29;97675.04;;;30.42;44.63
76815;BME280;65768;49.906;19.384;2023-07-29T11:23:00;97672.50;;;30.24;44.08
76815;BME280;65768;49.906;19.384;2023-07-29T11:25:30;97670.06;;;30.27;43.76
76815;BME280;65768;49.906;19.384;2023-07-29T11:28:00;97667.84;;;30.05;43.16
76815;BME280;65768;49.906;19.384;2023-07-29T11:30:29;97667.74;;;29.59;43.74
76815;BME280;65768;49.906;19.384;2023-07-29T11:33:00;97661.88;;;29.81;43.96
76815;BME280;65768;49.906;19.384;2023-07-29T11:35:29;97651.05;;;30.25;42.84
76815;BME280;65768;49.906;19.384;2023-07-29T11:37:57;97652.35;;;30.08;43.59
76815;BME280;65768;49.906;19.384;2023-07-29T11:40:26;97647.57;;;29.87;43.02
76815;BME280;65768;49.906;19.384;2023-07-29T11:42:55;97646.53;;;30.00;42.76
76815;BME280;65768;49.906;19.384;2023-07-29T11:45:24;97646.80;;;30.24;42.31
76815;BME280;65768;49.906;19.384;2023-07-29T11:47:53;97636.38;;;30.80;41.28
76815;BME280;65768;49.906;19.384;2023-07-29T11:50:21;97640.40;;;31.40;39.56
76815;BME280;65768;49.906;19.384;2023-07-29T11:52:50;97639.14;;;31.34;38.58
76815;BME280;65768;49.906;19.384;2023-07-29T11:55:18;97639.76;;;31.07;38.98
76815;BME280;65768;49.906;19.384;2023-07-29T11:57:51;97627.59;;;31.22;37.43
76815;BME280;65768;49.906;19.384;2023-07-29T12:00:21;97637.36;;;31.41;36.88
76815;BME280;65768;49.906;19.384;2023-07-29T12:02:49;97640.85;;;31.44;38.15
76815;BME280;65768;49.906;19.384;2023-07-29T12:05:22;97636.80;;;31.61;37.75
76815;BME280;65768;49.906;19.384;2023-07-29T12:07:52;97629.55;;;31.76;38.79
76815;BME280;65768;49.906;19.384;2023-07-29T12:10:20;97631.05;;;31.70;37.47
76815;BME280;65768;49.906;19.384;2023-07-29T12:12:50;97627.89;;;31.13;38.91
76815;BME280;65768;49.906;19.384;2023-07-29T12:15:24;97623.95;;;30.80;38.54
76815;BME280;65768;49.906;19.384;2023-07-29T12:17:55;97621.43;;;31.36;38.40
76815;BME280;65768;49.906;19.384;2023-07-29T12:20:24;97616.36;;;31.48;37.92
76815;BME280;65768;49.906;19.384;2023-07-29T12:22:55;97614.41;;;32.23;37.29
76815;BME280;65768;49.906;19.384;2023-07-29T12:25:25;97612.72;;;32.46;35.91
76815;BME280;65768;49.906;19.384;2023-07-29T12:27:56;97612.17;;;32.60;36.32
76815;BME280;65768;49.906;19.384;2023-07-29T12:30:24;97609.25;;;31.74;36.99
76815;BME280;65768;49.906;19.384;2023-07-29T12:32:54;97603.14;;;32.75;37.04
76815;BME280;65768;49.906;19.384;2023-07-29T12:35:23;97613.80;;;32.82;36.01
76815;BME280;65768;49.906;19.384;2023-07-29T12:37:59;97610.70;;;31.55;38.40
76815;BME280;65768;49.906;19.384;2023-07-29T12:40:30;97612.77;;;31.44;39.77
76815;BME280;65768;49.906;19.384;2023-07-29T12:42:58;97616.52;;;30.52;41.03
76815;BME280;65768;49.906;19.384;2023-07-29T12:45:26;97617.91;;;30.23;41.43
76815;BME280;65768;49.906;19.384;2023-07-29T12:47:55;97625.13;;;29.42;41.68
76815;BME280;65768;49.906;19.384;2023-07-29T12:50:25;97623.77;;;29.21;42.23
76815;BME280;65768;49.906;19.384;2023-07-29T12:52:54;97626.05;;;29.44;42.58
76815;BME280;65768;49.906;19.384;2023-07-29T12:55:23;97623.29;;;29.05;43.32
76815;BME280;65768;49.906;19.384;2023-07-29T12:57:51;97621.90;;;29.02;44.39
76815;BME280;65768;49.906;19.384;2023-07-29T13:00:30;97627.34;;;29.54;44.47
76815;BME280;65768;49.906;19.384;2023-07-29T13:02:58;97625.85;;;29.38;46.24
76815;BME280;65768;49.906;19.384;2023-07-29T13:05:27;97623.84;;;29.36;48.88
76815;BME280;65768;49.906;19.384;2023-07-29T13:07:56;97616.62;;;29.31;50.96
76815;BME280;65768;49.906;19.384;2023-07-29T13:10:25;97617.44;;;29.21;51.36
76815;BME280;65768;49.906;19.384;2023-07-29T13:12:53;97618.55;;;29.12;52.26
76815;BME280;65768;49.906;19.384;2023-07-29T13:15:22;97616.20;;;28.71;51.70